Weather at İskenderun Airport [CLOSED]

Public forecast

Using degrees Celsius for public forecast. Weather courtesy of forecast.io.

Closest aviation weather report (METAR) to İskenderun Airport

Closest report is Hatay Airport, 14.1 nm (26.2 km) SSE. Retrieved 2020/10/21 05:50 UTC (29 minutes ago):

LTDA 210550Z VRB02KT CAVOK 20/14 Q1018 NOSIG

Closest aviation forecast (TAF) to İskenderun Airport

Closest forecast is İncirlik Air Base, 43.4 nm (80.4 km) NW. Retrieved 2020/10/21 06:03 UTC (16 minutes ago):

TAF LTAG 210440Z 2106/2206 VRB02KT CAVOK